Time;durP1;ratioP1;P1;durP2;ratioP2;P2;SDS_P1;SDS_P2;PMS_P1;PMS_P2;Temp;Humidity;BMP_temperature;BMP_pressure;BME280_temperature;BME280_humidity;BME280_pressure;Samples;Min_cycle;Max_cycle;Signal;HPM_P1;HPM_P2
2023/07/12 00:03:00;;;;;;;5.53;3.37;;;;;;;15.63;66.01;100410.93;1719648;83;21302;-56
2023/07/12 00:06:07;;;;;;;4.83;3.45;;;;;;;15.61;66.12;100411.66;1704987;83;21206;-54
2023/07/12 00:09:15;;;;;;;5.42;3.45;;;;;;;15.58;66.22;100410.70;1720745;82;21214;-55
2023/07/12 00:12:20;;;;;;;4.90;3.30;;;;;;;15.57;66.26;100418.63;1724579;79;21740;-56
2023/07/12 00:15:36;;;;;;;5.55;3.72;;;;;;;15.52;66.29;100418.95;1735963;82;21864;-55
2023/07/12 00:18:41;;;;;;;8.93;3.47;;;;;;;15.47;66.42;100407.16;1735565;82;21348;-55
2023/07/12 00:21:48;;;;;;;6.83;3.98;;;;;;;15.45;66.54;100405.12;1736005;82;21375;-55
2023/07/12 00:24:54;;;;;;;6.60;3.95;;;;;;;15.45;66.66;100391.33;1735282;82;21410;-54
2023/07/12 00:28:00;;;;;;;9.75;4.05;;;;;;;15.43;66.66;100396.20;1735475;82;21425;-53
2023/07/12 00:31:06;;;;;;;8.38;4.10;;;;;;;15.40;66.66;100399.37;1735613;82;21359;-54
2023/07/12 00:34:12;;;;;;;6.85;4.10;;;;;;;15.39;66.75;100384.41;1735845;82;21997;-55
2023/07/12 00:37:23;;;;;;;6.58;3.75;;;;;;;15.38;66.82;100390.44;1735299;82;21857;-54
2023/07/12 00:40:51;;;;;;;4.60;3.35;;;;;;;15.34;66.80;100387.76;1735899;82;21383;-55
2023/07/12 00:44:05;;;;;;;9.23;4.10;;;;;;;15.33;66.96;100381.07;1735542;82;21407;-54
2023/07/12 00:47:11;;;;;;;4.83;3.20;;;;;;;15.30;67.02;100381.48;1735664;82;21675;-56
2023/07/12 00:50:27;;;;;;;6.17;3.42;;;;;;;15.28;67.14;100379.45;1734400;82;21348;-54
2023/07/12 00:53:36;;;;;;;6.05;3.50;;;;;;;15.26;67.26;100375.53;1735532;82;21351;-55
2023/07/12 00:56:44;;;;;;;7.90;3.30;;;;;;;15.24;67.31;100382.31;1735466;82;21364;-54
2023/07/12 00:59:50;;;;;;;5.97;3.72;;;;;;;15.19;67.30;100393.94;1735677;82;21383;-56
2023/07/12 01:02:57;;;;;;;8.03;3.58;;;;;;;15.17;67.39;100391.08;1735655;82;21359;-55
2023/07/12 01:06:04;;;;;;;6.65;3.40;;;;;;;15.16;67.54;100394.91;1735276;82;21419;-55
2023/07/12 01:09:16;;;;;;;7.05;3.65;;;;;;;15.13;67.63;100397.52;1735142;82;21378;-57
2023/07/12 01:12:21;;;;;;;7.45;3.30;;;;;;;15.09;67.60;100397.63;1735526;82;21386;-55
2023/07/12 01:15:29;;;;;;;6.70;3.22;;;;;;;15.06;67.69;100395.80;1678461;84;21208;-55
2023/07/12 01:18:36;;;;;;;5.10;3.33;;;;;;;15.05;67.81;100396.31;1676981;85;21726;-56
2023/07/12 01:21:45;;;;;;;4.60;3.30;;;;;;;15.03;67.88;100398.97;1677981;85;21336;-56
2023/07/12 01:24:51;;;;;;;4.92;3.50;;;;;;;14.99;67.92;100397.14;1651975;85;21682;-56
2023/07/12 01:27:59;;;;;;;8.23;3.60;;;;;;;14.95;67.92;100395.86;1677420;85;21264;-56
2023/07/12 01:31:06;;;;;;;5.97;3.60;;;;;;;14.93;68.03;100403.47;1677264;85;21197;-55
2023/07/12 01:34:07;;;;;;;6.67;3.22;;;;;;;14.91;68.19;100405.57;1676994;85;21252;-55
2023/07/12 01:37:04;;;;;;;6.62;3.98;;;;;;;14.88;68.22;100405.46;1676880;85;21217;-56
2023/07/12 01:40:11;;;;;;;8.37;3.50;;;;;;;14.84;68.18;100404.70;1677353;85;21253;-56
2023/07/12 01:43:17;;;;;;;7.60;3.47;;;;;;;14.81;68.14;100410.58;1677354;85;22598;-56
2023/07/12 01:46:25;;;;;;;8.03;3.47;;;;;;;14.77;68.22;100415.67;1677036;85;21216;-55
2023/07/12 01:49:31;;;;;;;7.55;4.12;;;;;;;14.70;68.29;100412.53;1677031;85;21340;-55
2023/07/12 01:52:37;;;;;;;5.78;3.45;;;;;;;14.67;68.40;100426.20;1677767;84;21439;-54
2023/07/12 01:55:44;;;;;;;5.83;3.47;;;;;;;14.64;68.52;100413.34;1676912;85;21733;-54
2023/07/12 01:58:52;;;;;;;7.87;3.50;;;;;;;14.64;68.69;100416.09;1677840;85;21815;-55
2023/07/12 02:01:58;;;;;;;6.78;3.50;;;;;;;14.66;68.75;100423.64;1676895;85;21280;-55
2023/07/12 02:05:06;;;;;;;10.82;4.55;;;;;;;14.67;68.92;100414.31;1676899;85;21781;-56
2023/07/12 02:08:13;;;;;;;7.95;4.00;;;;;;;14.73;69.05;100430.06;1677170;85;21245;-54
2023/07/12 02:11:18;;;;;;;5.25;3.50;;;;;;;14.75;69.04;100429.31;1677714;85;21891;-55
2023/07/12 02:14:24;;;;;;;6.22;3.67;;;;;;;14.79;69.21;100419.06;1683241;81;21300;-55
2023/07/12 02:17:29;;;;;;;6.33;4.08;;;;;;;14.86;69.31;100429.61;1720131;82;21725;-55
2023/07/12 02:20:37;;;;;;;5.80;3.40;;;;;;;14.93;69.36;100435.17;1720593;82;21209;-55
2023/07/12 02:23:43;;;;;;;6.58;3.52;;;;;;;14.96;69.36;100434.25;1720172;82;21656;-55
2023/07/12 02:26:50;;;;;;;7.53;3.42;;;;;;;15.03;69.45;100431.53;1720306;82;21214;-55
2023/07/12 02:29:57;;;;;;;5.97;3.47;;;;;;;15.12;69.57;100434.95;1719965;83;21268;-55
2023/07/12 02:33:03;;;;;;;5.45;3.30;;;;;;;15.17;69.59;100434.68;1720852;82;21233;-56
2023/07/12 02:36:10;;;;;;;9.85;3.40;;;;;;;15.22;69.62;100428.55;1720922;82;21269;-55
2023/07/12 02:39:17;;;;;;;6.97;3.40;;;;;;;15.27;69.67;100431.55;1720112;83;21213;-55
2023/07/12 02:42:23;;;;;;;7.08;4.95;;;;;;;15.32;69.72;100431.23;1732577;81;21224;-55
2023/07/12 02:45:29;;;;;;;6.58;3.50;;;;;;;15.35;69.67;100425.31;1765606;80;21300;-56
2023/07/12 02:48:37;;;;;;;4.90;2.85;;;;;;;15.38;69.60;100427.69;1743415;82;21427;-57
2023/07/12 02:51:43;;;;;;;6.55;3.67;;;;;;;15.43;69.64;100420.20;1735711;81;21216;-55
2023/07/12 02:54:50;;;;;;;8.55;3.95;;;;;;;15.47;69.74;100425.09;1743738;82;21387;-56
2023/07/12 02:57:57;;;;;;;5.92;3.70;;;;;;;15.51;69.82;100419.47;1735269;82;21189;-55
2023/07/12 03:01:06;;;;;;;5.62;4.00;;;;;;;15.55;69.89;100415.77;1744027;82;21343;-56
2023/07/12 03:04:12;;;;;;;6.28;3.85;;;;;;;15.55;69.84;100422.16;1735895;82;21564;-55
2023/07/12 03:07:19;;;;;;;6.33;3.80;;;;;;;15.57;69.90;100421.39;1744391;82;21456;-56
2023/07/12 03:10:27;;;;;;;8.18;3.62;;;;;;;15.59;69.94;100424.81;1736283;82;21216;-56
2023/07/12 03:13:33;;;;;;;6.95;3.85;;;;;;;15.64;70.00;100423.66;1751190;81;21355;-55
2023/07/12 03:16:40;;;;;;;8.48;4.12;;;;;;;15.73;70.12;100434.83;1743239;81;21475;-54
2023/07/12 03:19:47;;;;;;;8.08;4.50;;;;;;;15.80;70.19;100432.95;1742991;82;21355;-54
2023/07/12 03:22:54;;;;;;;7.97;4.47;;;;;;;15.88;70.22;100444.33;1744525;82;21943;-55
2023/07/12 03:25:58;;;;;;;8.30;4.00;;;;;;;15.89;70.21;100433.59;1742435;81;21370;-55
2023/07/12 03:29:05;;;;;;;5.92;4.08;;;;;;;15.89;70.16;100439.11;1744389;82;21930;-55
2023/07/12 03:32:15;;;;;;;9.18;4.60;;;;;;;15.88;70.06;100441.56;1743699;81;21343;-55
2023/07/12 03:35:22;;;;;;;6.03;4.10;;;;;;;15.89;70.08;100439.97;1744328;82;21347;-56
2023/07/12 03:38:30;;;;;;;6.95;4.58;;;;;;;15.94;70.18;100438.82;1743657;82;21698;-56
2023/07/12 03:41:36;;;;;;;6.03;4.65;;;;;;;16.02;70.26;100446.91;1744394;82;21336;-56
2023/07/12 03:44:42;;;;;;;6.62;4.53;;;;;;;16.11;70.37;100449.78;1743591;82;21379;-56
2023/07/12 03:47:49;;;;;;;7.85;4.70;;;;;;;16.20;70.47;100447.16;1744339;82;21351;-57
2023/07/12 03:50:56;;;;;;;6.25;4.87;;;;;;;16.31;70.54;100452.06;1743702;81;21390;-55
2023/07/12 03:54:04;;;;;;;10.10;5.47;;;;;;;16.42;70.55;100450.57;1744281;82;21362;-56
2023/07/12 03:57:12;;;;;;;7.28;4.83;;;;;;;16.53;70.58;100462.93;1743603;81;21446;-56
2023/07/12 04:00:20;;;;;;;9.93;5.10;;;;;;;16.64;70.58;100460.91;1744463;82;21482;-55
2023/07/12 04:03:25;;;;;;;9.13;4.97;;;;;;;16.70;70.54;100464.23;1743632;82;21419;-56
2023/07/12 04:06:26;;;;;;;8.00;5.72;;;;;;;16.73;70.45;100465.17;1744773;82;21343;-55
2023/07/12 04:09:33;;;;;;;10.23;7.20;;;;;;;16.76;70.46;100468.89;1743156;82;21347;-56
2023/07/12 04:12:39;;;;;;;8.88;6.35;;;;;;;16.81;70.58;100469.11;1744359;82;21434;-54
2023/07/12 04:15:46;;;;;;;7.50;5.12;;;;;;;16.88;70.59;100468.55;1743239;81;21394;-56
2023/07/12 04:18:52;;;;;;;9.53;5.10;;;;;;;16.98;70.65;100473.12;1709265;82;21217;-55
2023/07/12 04:21:58;;;;;;;11.05;5.10;;;;;;;17.10;70.62;100473.63;1701960;83;21242;-55
2023/07/12 04:25:03;;;;;;;12.80;5.35;;;;;;;17.13;70.52;100474.58;1721034;82;21218;-56
2023/07/12 04:28:10;;;;;;;7.50;4.78;;;;;;;17.17;70.54;100473.63;1704905;83;21359;-56
2023/07/12 04:31:17;;;;;;;7.40;4.78;;;;;;;17.18;70.44;100467.87;1722750;83;21404;-55
2023/07/12 04:34:23;;;;;;;9.38;5.40;;;;;;;17.18;70.43;100472.02;1688689;83;21700;-57
2023/07/12 04:37:31;;;;;;;11.08;5.15;;;;;;;17.24;70.52;100474.44;1724195;82;21443;-56
2023/07/12 04:40:38;;;;;;;6.67;4.75;;;;;;;17.29;70.58;100482.42;1703372;82;21371;-53
2023/07/12 04:43:45;;;;;;;6.62;4.67;;;;;;;17.37;70.77;100484.96;1702905;83;21468;-56
2023/07/12 04:46:52;;;;;;;8.68;4.87;;;;;;;17.48;70.85;100490.38;1717682;83;21221;-56
2023/07/12 04:49:59;;;;;;;5.42;4.40;;;;;;;17.56;70.89;100498.45;1702377;83;21403;-56
2023/07/12 04:53:06;;;;;;;9.28;5.20;;;;;;;17.66;70.93;100503.83;1707531;84;21321;-56
2023/07/12 04:56:13;;;;;;;6.83;4.10;;;;;;;17.72;70.82;100509.90;1707742;83;21218;-56
2023/07/12 04:59:19;;;;;;;8.58;5.10;;;;;;;17.76;70.83;100513.91;1687255;84;21368;-57
2023/07/12 05:02:26;;;;;;;7.22;4.42;;;;;;;17.83;70.75;100516.66;1703465;84;21472;-57
2023/07/12 05:05:33;;;;;;;8.05;4.55;;;;;;;17.87;70.74;100528.47;1703341;84;21361;-57
2023/07/12 05:08:40;;;;;;;8.70;3.92;;;;;;;17.93;70.81;100531.73;1703613;84;21381;-57
2023/07/12 05:11:48;;;;;;;11.60;4.20;;;;;;;18.04;70.88;100535.75;1699781;83;21862;-55
2023/07/12 05:15:01;;;;;;;11.05;4.60;;;;;;;18.11;70.81;100534.34;1702685;84;21953;-57
2023/07/12 05:18:11;;;;;;;3.80;3.08;;;;;;;18.21;70.83;100543.86;1708944;82;21443;-57
2023/07/12 05:21:20;;;;;;;4.78;3.08;;;;;;;18.32;70.86;100541.77;1735842;82;21380;-57
2023/07/12 05:24:25;;;;;;;4.47;3.30;;;;;;;18.41;70.76;100539.08;1736427;82;21415;-56
2023/07/12 05:27:32;;;;;;;5.45;4.08;;;;;;;18.49;70.73;100532.45;1730129;82;21479;-53
2023/07/12 05:30:41;;;;;;;5.35;4.12;;;;;;;18.59;70.68;100530.87;1722896;81;22269;-54
2023/07/12 05:33:52;;;;;;;8.03;4.97;;;;;;;18.69;70.65;100528.45;1725553;82;22045;-55
2023/07/12 05:37:01;;;;;;;8.95;4.67;;;;;;;18.82;70.62;100523.34;1733849;81;21746;-51
2023/07/12 05:40:12;;;;;;;5.75;3.55;;;;;;;18.94;70.60;100523.77;1725130;81;21256;-56
2023/07/12 05:43:23;;;;;;;4.58;2.98;;;;;;;19.06;70.53;100533.04;1684247;83;21210;-56
2023/07/12 05:47:17;;;;;;;11.05;3.52;;;;;;;19.14;70.28;100524.42;1663177;84;21807;-55
2023/07/12 05:50:45;;;;;;;3.58;2.47;;;;;;;19.20;70.11;100526.84;1692920;83;21416;-56
2023/07/12 05:54:41;;;;;;;6.00;4.42;;;;;;;19.22;69.96;100533.85;1695652;83;21252;-56
2023/07/12 05:58:09;;;;;;;4.25;2.58;;;;;;;19.24;69.81;100530.31;1660663;84;21272;-52
2023/07/12 06:01:19;;;;;;;4.22;2.17;;;;;;;19.26;69.61;100535.64;1661422;85;21297;-56
2023/07/12 06:05:22;;;;;;;4.00;1.95;;;;;;;19.29;69.48;100542.16;1686956;83;21201;-55
2023/07/12 06:08:38;;;;;;;6.60;2.58;;;;;;;19.29;69.25;100547.17;1670806;84;21240;-53
2023/07/12 06:11:47;;;;;;;6.22;2.72;;;;;;;19.31;69.11;100539.45;1699750;84;21226;-55
2023/07/12 06:14:54;;;;;;;5.78;2.20;;;;;;;19.39;69.09;100544.41;1672481;85;21238;-53
2023/07/12 06:18:01;;;;;;;3.17;1.82;;;;;;;19.46;68.97;100542.39;1654082;86;21228;-55
2023/07/12 06:21:10;;;;;;;2.80;2.20;;;;;;;19.53;68.91;100539.02;1695082;82;21222;-53
2023/07/12 06:24:18;;;;;;;3.27;2.27;;;;;;;19.59;68.71;100546.42;1706160;84;21221;-53
2023/07/12 06:27:23;;;;;;;3.42;2.12;;;;;;;19.67;68.61;100546.13;1706748;84;21527;-55
2023/07/12 06:30:30;;;;;;;3.75;2.20;;;;;;;19.71;68.37;100538.48;1707106;84;21384;-54
2023/07/12 06:33:38;;;;;;;3.25;2.20;;;;;;;19.77;68.15;100556.17;1706913;84;21376;-55
2023/07/12 06:36:44;;;;;;;4.62;1.98;;;;;;;19.79;67.98;100556.23;1707119;83;21429;-53
2023/07/12 06:39:50;;;;;;;3.27;2.15;;;;;;;19.85;67.86;100555.86;1709639;82;21932;-54
2023/07/12 06:42:57;;;;;;;4.33;2.05;;;;;;;19.92;67.73;100552.45;1722077;82;22303;-54
2023/07/12 06:46:06;;;;;;;3.42;2.10;;;;;;;19.99;67.62;100551.84;1712773;82;22003;-55
2023/07/12 06:49:16;;;;;;;2.55;1.87;;;;;;;20.09;67.49;100542.42;1733946;82;21344;-53
2023/07/12 06:52:19;;;;;;;2.75;1.70;;;;;;;20.21;67.44;100535.87;1718539;82;21415;-54
2023/07/12 06:55:25;;;;;;;6.03;1.80;;;;;;;20.29;67.12;100527.73;1729981;82;21441;-55
2023/07/12 06:58:34;;;;;;;11.78;2.40;;;;;;;20.31;66.87;100525.58;1734648;82;21198;-55
2023/07/12 07:01:43;;;;;;;3.35;1.85;;;;;;;20.27;66.63;100527.11;1726594;82;21274;-56
2023/07/12 07:04:49;;;;;;;2.33;1.60;;;;;;;20.25;66.41;100523.71;1735277;82;21532;-55
2023/07/12 07:07:58;;;;;;;2.80;1.82;;;;;;;20.24;66.20;100520.63;1735639;82;21724;-55
2023/07/12 07:11:03;;;;;;;4.05;2.00;;;;;;;20.24;66.02;100522.02;1727685;82;21365;-56
2023/07/12 07:14:09;;;;;;;2.08;1.70;;;;;;;20.36;66.04;100521.55;1735730;82;21771;-55
2023/07/12 07:17:16;;;;;;;3.42;1.90;;;;;;;20.51;65.92;100519.17;1757280;81;21177;-55
2023/07/12 07:20:22;;;;;;;5.35;2.33;;;;;;;20.68;65.84;100520.18;1728708;78;22119;-55
2023/07/12 07:23:27;;;;;;;4.80;1.77;;;;;;;20.77;65.59;100529.91;1707086;83;21236;-57
2023/07/12 07:26:45;;;;;;;3.70;1.90;;;;;;;20.80;65.28;100526.08;1719836;82;21191;-57
2023/07/12 07:31:10;;;;;;;4.25;1.80;;;;;;;20.87;65.13;100527.92;1721427;82;21333;-56
2023/07/12 07:34:30;;;;;;;2.87;1.72;;;;;;;20.99;64.80;100516.29;1735115;82;21416;-56
2023/07/12 07:37:44;;;;;;;4.72;1.70;;;;;;;21.20;64.67;100519.89;1721058;82;21218;-56
2023/07/12 07:40:57;;;;;;;2.12;1.60;;;;;;;21.28;64.30;100523.14;1765215;80;21485;-56
2023/07/12 07:44:22;;;;;;;2.02;1.45;;;;;;;21.21;63.94;100531.31;1722588;82;22114;-59
2023/07/12 07:48:10;;;;;;;4.22;2.10;;;;;;;21.20;63.70;100521.28;1743850;79;21527;-58
2023/07/12 07:51:23;;;;;;;2.80;1.85;;;;;;;21.33;63.49;100521.02;1774270;79;21403;-59
2023/07/12 07:54:35;;;;;;;2.85;1.85;;;;;;;21.44;63.20;100525.20;1739282;81;21391;-57
2023/07/12 08:01:09;;;;;;;4.90;1.55;;;;;;;21.80;62.78;100531.08;1858222;76;22277;-55
2023/07/12 08:04:16;;;;;;;4.50;1.40;;;;;;;21.67;62.39;100521.02;1801675;78;21658;-59
2023/07/12 08:07:24;;;;;;;1.57;1.40;;;;;;;21.58;62.08;100525.24;1784455;79;21364;-57
2023/07/12 08:10:32;;;;;;;3.17;1.17;;;;;;;21.64;62.00;100517.33;1778122;79;21351;-57
2023/07/12 08:13:38;;;;;;;1.98;1.50;;;;;;;21.80;61.81;100520.76;1768864;79;21391;-55
2023/07/12 08:16:45;;;;;;;4.22;1.62;;;;;;;21.81;61.49;100523.87;1780938;79;21213;-55
2023/07/12 08:19:56;;;;;;;6.85;2.60;;;;;;;21.77;61.15;100523.22;1747946;80;21864;-54
2023/07/12 08:23:03;;;;;;;7.33;1.82;;;;;;;21.84;60.95;100527.55;1752026;79;21367;-54
2023/07/12 08:26:10;;;;;;;3.22;2.08;;;;;;;21.87;60.74;100511.73;1758817;79;21384;-56
2023/07/12 08:29:18;;;;;;;2.22;1.50;;;;;;;21.87;60.52;100520.09;1737454;81;21439;-54
2023/07/12 08:32:24;;;;;;;3.25;1.62;;;;;;;21.86;60.30;100521.73;1737580;81;21358;-57
2023/07/12 08:35:31;;;;;;;5.70;1.92;;;;;;;21.86;60.23;100514.22;1765519;81;21773;-56
2023/07/12 08:38:39;;;;;;;5.55;2.25;;;;;;;22.00;60.13;100518.42;1767832;80;21363;-54
2023/07/12 08:41:44;;;;;;;2.67;1.52;;;;;;;22.06;59.75;100517.44;1767065;79;21367;-55
2023/07/12 08:44:50;;;;;;;5.42;2.17;;;;;;;22.06;59.38;100507.67;1763922;79;21857;-54
2023/07/12 08:47:57;;;;;;;4.10;1.37;;;;;;;22.13;59.19;100508.92;1759159;79;21291;-54
2023/07/12 08:51:03;;;;;;;2.70;1.70;;;;;;;22.15;58.87;100507.56;1758876;80;21355;-55
2023/07/12 08:54:11;;;;;;;2.20;1.65;;;;;;;22.23;58.69;100502.70;1725353;82;21227;-56
2023/07/12 08:57:30;;;;;;;2.50;1.40;;;;;;;22.35;58.46;100511.86;1779805;80;21405;-54
2023/07/12 09:00:36;;;;;;;2.25;1.40;;;;;;;22.33;57.99;100513.50;1764549;80;21208;-56
2023/07/12 09:03:43;;;;;;;3.52;1.70;;;;;;;22.22;57.68;100515.80;1707695;81;21519;-54
2023/07/12 09:06:50;;;;;;;4.20;1.80;;;;;;;22.31;57.60;100516.26;1734589;82;21244;-55
2023/07/12 09:09:57;;;;;;;3.27;1.40;;;;;;;22.41;57.46;100506.13;1735561;82;21808;-54
2023/07/12 09:13:05;;;;;;;3.72;1.62;;;;;;;22.52;57.20;100501.08;1736756;82;22142;-53
2023/07/12 09:16:42;;;;;;;2.27;1.45;;;;;;;22.50;56.85;100499.61;1728998;80;21209;-55
2023/07/12 09:19:50;;;;;;;3.15;1.45;;;;;;;22.46;56.62;100508.16;1791262;79;21196;-54
2023/07/12 09:22:56;;;;;;;3.40;1.32;;;;;;;22.46;56.30;100512.35;1769789;79;21342;-55
2023/07/12 09:26:05;;;;;;;2.50;1.35;;;;;;;22.46;56.08;100513.75;1790950;79;21239;-55
2023/07/12 09:29:16;;;;;;;3.15;1.45;;;;;;;22.55;55.94;100505.33;1737335;81;21189;-54
2023/07/12 09:32:28;;;;;;;5.45;1.35;;;;;;;22.69;55.65;100501.11;1713970;83;21811;-57
2023/07/12 09:35:49;;;;;;;2.17;1.35;;;;;;;22.84;55.46;100499.97;1772479;81;21354;-55
2023/07/12 09:38:55;;;;;;;3.27;1.47;;;;;;;23.06;55.29;100503.70;1737166;82;21347;-57
2023/07/12 09:42:06;;;;;;;12.45;2.27;;;;;;;23.24;55.03;100521.61;1762862;80;21212;-56
2023/07/12 09:45:17;;;;;;;4.58;2.20;;;;;;;23.24;54.58;100514.63;1773846;80;21910;-58
2023/07/12 09:48:43;;;;;;;2.10;1.40;;;;;;;23.09;54.20;100508.77;1809180;79;21346;-55
2023/07/12 09:52:09;;;;;;;2.20;1.40;;;;;;;22.89;53.85;100514.88;1778720;79;21287;-51
2023/07/12 09:55:23;;;;;;;2.80;1.10;;;;;;;22.61;53.56;100514.91;1780630;80;21339;-55
2023/07/12 09:58:43;;;;;;;3.55;1.10;;;;;;;22.62;53.52;100529.72;1781885;79;21406;-56
2023/07/12 10:02:03;;;;;;;4.20;2.17;;;;;;;22.71;53.57;100524.02;1747716;80;21343;-53
2023/07/12 10:05:18;;;;;;;2.62;1.30;;;;;;;22.74;53.29;100523.55;1766338;81;21192;-54
2023/07/12 10:08:25;;;;;;;2.30;1.80;;;;;;;22.88;53.17;100516.53;1804020;79;21367;-53
2023/07/12 10:11:44;;;;;;;2.25;1.40;;;;;;;23.07;53.05;100516.58;1795566;79;21370;-51
2023/07/12 10:14:51;;;;;;;2.95;1.37;;;;;;;23.12;52.76;100516.67;1794539;78;21236;-53
2023/07/12 10:17:58;;;;;;;2.90;1.55;;;;;;;23.03;52.38;100512.59;1768764;79;21854;-53
2023/07/12 10:21:05;;;;;;;2.35;1.55;;;;;;;22.95;52.13;100514.41;1758361;80;21368;-51
2023/07/12 10:24:12;;;;;;;2.05;1.35;;;;;;;22.85;51.93;100519.83;1789760;78;21350;-49
2023/07/12 10:27:26;;;;;;;1.12;0.80;;;;;;;22.94;51.94;100525.28;1747410;81;21237;-53
2023/07/12 10:30:33;;;;;;;2.52;1.10;;;;;;;23.18;51.94;100522.63;1770208;79;21498;-50
2023/07/12 10:33:44;;;;;;;2.25;1.22;;;;;;;23.43;51.67;100521.66;1753449;79;21177;-48
2023/07/12 10:36:51;;;;;;;3.92;2.37;;;;;;;23.60;51.39;100511.29;1761867;80;21201;-51
2023/07/12 10:39:57;;;;;;;1.72;1.22;;;;;;;23.72;51.19;100512.58;1810837;78;21717;-51
2023/07/12 10:43:06;;;;;;;2.08;1.27;;;;;;;23.76;50.96;100516.54;1765935;80;21297;-51
2023/07/12 10:46:15;;;;;;;4.12;1.30;;;;;;;23.66;50.62;100510.25;1773674;80;21212;-55
2023/07/12 10:49:24;;;;;;;3.60;1.32;;;;;;;23.45;50.19;100505.49;1779245;80;21706;-54
2023/07/12 10:52:40;;;;;;;2.55;1.12;;;;;;;23.47;50.24;100513.05;1776210;80;21267;-54
2023/07/12 10:55:59;;;;;;;11.12;4.67;;;;;;;23.54;50.01;100496.95;1779626;79;21251;-51
2023/07/12 10:59:38;;;;;;;5.30;1.20;;;;;;;23.74;50.00;100500.02;1810631;78;21350;-54
2023/07/12 11:02:57;;;;;;;1.55;1.10;;;;;;;24.03;49.85;100493.72;1777132;79;21255;-50
2023/07/12 11:06:15;;;;;;;1.42;1.00;;;;;;;24.34;49.70;100517.61;1758721;80;21355;-53
2023/07/12 11:09:22;;;;;;;1.87;1.22;;;;;;;24.33;49.15;100520.12;1767182;80;21347;-52
2023/07/12 11:12:46;;;;;;;2.35;1.20;;;;;;;24.13;48.67;100507.30;1766875;80;21378;-54
2023/07/12 11:15:59;;;;;;;1.92;1.20;;;;;;;23.95;48.41;100515.12;1767534;80;22160;-51
2023/07/12 11:19:06;;;;;;;2.25;1.15;;;;;;;23.95;48.40;100508.13;1766135;80;21367;-52
2023/07/12 11:22:33;;;;;;;5.08;1.40;;;;;;;24.04;48.38;100494.86;1777131;80;21178;-55
2023/07/12 11:25:57;;;;;;;2.30;1.50;;;;;;;24.12;48.20;100498.59;1747726;80;21343;-55
2023/07/12 11:28:59;;;;;;;2.62;1.30;;;;;;;24.15;48.02;100498.07;1738990;80;21371;-55
2023/07/12 11:32:32;;;;;;;2.62;1.12;;;;;;;24.04;47.61;100493.45;1755815;80;21531;-56
2023/07/12 11:36:01;;;;;;;3.50;1.05;;;;;;;23.83;47.31;100483.66;1746562;81;21189;-56
2023/07/12 11:39:07;;;;;;;1.65;1.25;;;;;;;23.72;47.15;100477.09;1738592;81;21797;-55
2023/07/12 11:42:19;;;;;;;5.37;1.77;;;;;;;23.82;47.09;100469.39;1712294;83;21224;-53
2023/07/12 11:45:26;;;;;;;5.33;1.57;;;;;;;23.97;47.16;100476.59;1686799;84;21222;-53
2023/07/12 11:48:39;;;;;;;2.12;1.10;;;;;;;24.19;47.18;100471.81;1709406;82;21236;-53
2023/07/12 11:51:45;;;;;;;3.85;1.22;;;;;;;24.40;47.09;100472.34;1710348;83;21891;-53
2023/07/12 11:54:53;;;;;;;3.22;1.45;;;;;;;24.57;46.88;100469.73;1710717;82;21232;-54
2023/07/12 11:58:00;;;;;;;4.08;1.20;;;;;;;24.67;46.60;100481.03;1710732;82;21213;-55
2023/07/12 12:01:08;;;;;;;4.60;1.35;;;;;;;24.66;46.17;100477.07;1693676;83;21271;-53
2023/07/12 12:04:31;;;;;;;1.62;1.10;;;;;;;24.59;45.96;100481.48;1711049;81;21217;-55
2023/07/12 12:07:45;;;;;;;2.35;1.15;;;;;;;24.58;45.75;100490.14;1761441;81;21354;-54
2023/07/12 12:10:50;;;;;;;2.05;1.10;;;;;;;24.57;45.59;100496.87;1700863;82;21444;-54
2023/07/12 12:13:59;;;;;;;2.35;0.95;;;;;;;24.60;45.40;100481.80;1761995;81;21354;-55
2023/07/12 12:17:06;;;;;;;6.70;2.10;;;;;;;24.49;45.05;100482.80;1760533;81;21366;-54
2023/07/12 12:20:26;;;;;;;4.58;1.30;;;;;;;24.42;44.94;100484.13;1761425;81;21332;-53
2023/07/12 12:23:47;;;;;;;2.98;1.12;;;;;;;24.36;44.80;100490.20;1761451;80;21359;-54
2023/07/12 12:26:54;;;;;;;4.00;1.00;;;;;;;24.36;44.70;100484.61;1768193;79;21208;-49
2023/07/12 12:30:01;;;;;;;1.47;1.20;;;;;;;24.42;44.61;100494.75;1769888;81;21340;-49
2023/07/12 12:33:13;;;;;;;1.20;0.90;;;;;;;24.38;44.39;100496.40;1738247;81;21236;-51
2023/07/12 12:36:26;;;;;;;2.35;0.95;;;;;;;24.33;44.21;100492.14;1731626;82;21414;-50
2023/07/12 12:39:32;;;;;;;3.83;1.37;;;;;;;24.26;43.92;100485.06;1773559;81;21366;-49
2023/07/12 12:42:38;;;;;;;3.52;1.42;;;;;;;24.17;43.67;100498.66;1770971;80;21382;-49
2023/07/12 12:45:45;;;;;;;2.20;1.30;;;;;;;24.11;43.52;100504.45;1773904;81;21358;-47
2023/07/12 12:48:55;;;;;;;1.87;1.30;;;;;;;24.06;43.39;100503.84;1774069;81;21840;-47
2023/07/12 12:52:34;;;;;;;1.53;1.00;;;;;;;24.07;43.36;100502.73;1740991;80;21383;-51
2023/07/12 12:55:42;;;;;;;2.87;1.17;;;;;;;24.09;43.25;100503.32;1739253;80;21358;-51
2023/07/12 12:58:54;;;;;;;1.37;0.90;;;;;;;24.03;43.13;100497.92;1755588;79;21618;-49
2023/07/12 13:02:02;;;;;;;5.35;1.02;;;;;;;24.13;43.12;100496.66;1761825;80;21808;-50
2023/07/12 13:05:10;;;;;;;7.40;1.42;;;;;;;24.17;42.94;100491.67;1766555;80;21205;-51
2023/07/12 13:08:21;;;;;;;2.47;1.10;;;;;;;24.11;42.78;100499.72;1756820;80;21228;-49
2023/07/12 13:11:30;;;;;;;3.30;1.00;;;;;;;23.98;42.54;100497.30;1792665;79;21346;-52
2023/07/12 13:14:38;;;;;;;1.92;1.05;;;;;;;23.82;42.40;100488.97;1757562;81;21406;-49
2023/07/12 13:17:46;;;;;;;1.47;0.75;;;;;;;23.82;42.58;100496.78;1756933;79;21259;-51
2023/07/12 13:21:00;;;;;;;1.50;1.00;;;;;;;23.81;42.43;100484.45;1745811;81;21582;-51
2023/07/12 13:24:07;;;;;;;2.05;1.30;;;;;;;23.64;42.29;100486.75;1765843;79;21574;-52
2023/07/12 13:27:35;;;;;;;3.08;1.10;;;;;;;23.53;42.22;100484.09;1804701;79;21405;-53
2023/07/12 13:30:43;;;;;;;3.12;1.10;;;;;;;23.53;42.25;100477.11;1764686;80;21353;-54
2023/07/12 13:33:51;;;;;;;2.50;1.40;;;;;;;23.57;42.28;100472.67;1715908;83;21217;-53
2023/07/12 13:37:00;;;;;;;1.25;0.80;;;;;;;23.67;42.32;100475.62;1769825;81;21735;-51
2023/07/12 13:40:06;;;;;;;4.17;2.30;;;;;;;23.79;42.28;100477.73;1769719;79;21397;-52
2023/07/12 13:43:19;;;;;;;6.95;1.72;;;;;;;23.95;42.31;100478.22;1741138;81;21217;-52
2023/07/12 13:46:26;;;;;;;1.37;1.10;;;;;;;24.10;42.22;100475.62;1784178;79;21192;-56
2023/07/12 13:49:33;;;;;;;2.10;1.00;;;;;;;24.12;42.04;100482.39;1774792;79;21347;-51
2023/07/12 13:52:38;;;;;;;1.72;1.00;;;;;;;24.05;41.88;100487.32;1749624;81;21760;-53
2023/07/12 13:55:47;;;;;;;1.95;1.22;;;;;;;23.95;41.71;100479.62;1773041;80;21347;-53
2023/07/12 13:58:56;;;;;;;3.02;1.00;;;;;;;23.78;41.54;100471.86;1773461;80;21851;-53
2023/07/12 14:02:05;;;;;;;4.83;1.17;;;;;;;23.66;41.52;100468.31;1735588;81;21197;-55
2023/07/12 14:05:14;;;;;;;2.60;0.93;;;;;;;23.63;41.49;100468.02;1712480;81;21227;-60
2023/07/12 14:08:22;;;;;;;1.82;0.90;;;;;;;23.63;41.44;100451.52;1723318;82;21360;-54
2023/07/12 14:11:37;;;;;;;1.22;1.10;;;;;;;23.64;41.35;100467.76;1744319;81;21243;-54
2023/07/12 14:14:43;;;;;;;1.95;0.90;;;;;;;23.59;41.35;100463.48;1740688;81;21197;-54
2023/07/12 14:17:50;;;;;;;2.02;1.10;;;;;;;23.51;41.29;100461.14;1694848;84;21575;-54
2023/07/12 14:20:56;;;;;;;1.22;0.90;;;;;;;23.43;41.25;100461.04;1695386;84;21229;-56
2023/07/12 14:24:03;;;;;;;0.70;0.70;;;;;;;23.44;41.37;100464.66;1694710;84;21256;-58
2023/07/12 14:27:09;;;;;;;1.62;1.07;;;;;;;23.50;41.40;100457.48;1695117;84;21373;-55
2023/07/12 14:30:16;;;;;;;2.50;1.00;;;;;;;23.57;41.31;100458.70;1693860;82;21303;-56
2023/07/12 14:33:40;;;;;;;2.85;0.98;;;;;;;23.67;41.12;100452.41;1724652;82;21843;-56
2023/07/12 14:36:48;;;;;;;1.55;1.10;;;;;;;23.67;40.98;100453.26;1725274;82;21811;-54
2023/07/12 14:39:55;;;;;;;1.67;0.98;;;;;;;23.69;40.92;100445.43;1739099;81;21188;-55
2023/07/12 14:43:02;;;;;;;1.40;1.00;;;;;;;23.74;40.85;100451.67;1767475;80;21887;-56
2023/07/12 14:46:09;;;;;;;1.92;1.10;;;;;;;23.76;40.76;100447.50;1766161;81;21324;-55
2023/07/12 14:49:15;;;;;;;2.00;1.00;;;;;;;23.80;40.75;100450.05;1767524;80;21904;-55